createdAt,value
2023-09-30T00:01:30.599Z,1.88
2023-09-30T00:03:38.908Z,2.03
2023-09-30T00:05:46.936Z,2.45
2023-09-30T00:07:58.082Z,2.28
2023-09-30T00:10:07.180Z,2.20
2023-09-30T00:12:15.233Z,2.10
2023-09-30T00:14:20.676Z,1.85
2023-09-30T00:16:31.389Z,1.90
2023-09-30T00:18:39.416Z,2.10
2023-09-30T00:20:47.419Z,2.05
2023-09-30T00:22:55.249Z,2.00
2023-09-30T00:25:03.337Z,2.00
2023-09-30T00:27:11.348Z,2.58
2023-09-30T00:29:19.577Z,2.15
2023-09-30T00:31:31.325Z,1.85
2023-09-30T00:33:40.186Z,2.00
2023-09-30T00:35:48.654Z,2.05
2023-09-30T00:37:56.659Z,2.75
2023-09-30T00:40:05.066Z,2.22
2023-09-30T00:42:13.505Z,2.20
2023-09-30T00:44:21.845Z,3.08
2023-09-30T00:46:35.299Z,2.83
2023-09-30T00:48:44.490Z,3.10
2023-09-30T00:50:50.377Z,3.50
2023-09-30T00:52:59.096Z,3.05
2023-09-30T00:55:07.624Z,2.80
2023-09-30T00:57:17.805Z,2.58
2023-09-30T00:59:28.074Z,1.70
2023-09-30T01:01:38.768Z,2.58
2023-09-30T01:03:47.357Z,2.65
2023-09-30T01:05:55.748Z,2.60
2023-09-30T01:08:06.286Z,1.90
2023-09-30T01:10:14.531Z,2.00
2023-09-30T01:12:22.886Z,2.55
2023-09-30T01:14:31.896Z,2.45
2023-09-30T01:16:42.916Z,1.70
2023-09-30T01:18:51.303Z,1.92
2023-09-30T01:20:58.066Z,2.35
2023-09-30T01:23:09.000Z,2.30
2023-09-30T01:25:17.251Z,2.20
2023-09-30T01:27:26.960Z,2.33
2023-09-30T01:29:35.078Z,1.70
2023-09-30T01:31:43.847Z,2.40
2023-09-30T01:33:55.816Z,2.42
2023-09-30T01:36:02.062Z,1.90
2023-09-30T01:38:12.655Z,1.95
2023-09-30T01:40:20.931Z,2.45
2023-09-30T01:42:29.055Z,2.13
2023-09-30T01:44:38.192Z,2.40
2023-09-30T01:46:46.186Z,1.95
2023-09-30T01:48:54.512Z,2.15
2023-09-30T01:51:02.443Z,2.65
2023-09-30T01:53:13.299Z,2.70
2023-09-30T01:55:21.358Z,2.30
2023-09-30T01:57:29.525Z,2.38
2023-09-30T01:59:37.746Z,2.70
2023-09-30T02:01:47.475Z,2.20
2023-09-30T02:03:55.888Z,2.00
2023-09-30T02:06:05.020Z,2.30
2023-09-30T02:08:15.695Z,2.10
2023-09-30T02:10:22.762Z,2.30
2023-09-30T02:12:31.726Z,2.40
2023-09-30T02:14:40.117Z,2.47
2023-09-30T02:16:48.326Z,1.92
2023-09-30T02:18:56.396Z,2.20
2023-09-30T02:21:05.484Z,2.90
2023-09-30T02:23:18.462Z,1.88
2023-09-30T02:25:27.671Z,2.17
2023-09-30T02:27:35.689Z,2.35
2023-09-30T02:29:43.774Z,1.83
2023-09-30T02:31:51.843Z,1.70
2023-09-30T02:34:00.287Z,2.20
2023-09-30T02:36:11.536Z,1.95
2023-09-30T02:38:22.388Z,2.20
2023-09-30T02:40:30.345Z,2.10
2023-09-30T02:42:38.387Z,2.08
2023-09-30T02:44:43.795Z,2.20
2023-09-30T02:46:51.842Z,1.90
2023-09-30T02:48:59.883Z,2.38
2023-09-30T02:51:08.016Z,2.28
2023-09-30T02:53:16.407Z,2.83
2023-09-30T02:55:27.142Z,2.88
2023-09-30T02:57:36.864Z,2.72
2023-09-30T02:59:45.621Z,2.00
2023-09-30T03:01:54.124Z,2.00
2023-09-30T03:04:00.824Z,3.08
2023-09-30T03:06:09.237Z,2.83
2023-09-30T03:08:19.078Z,2.42
2023-09-30T03:10:30.364Z,2.67
2023-09-30T03:12:38.610Z,2.13
2023-09-30T03:14:46.833Z,2.40
2023-09-30T03:16:54.899Z,2.00
2023-09-30T03:19:00.517Z,2.80
2023-09-30T03:21:18.142Z,3.03
2023-09-30T03:23:30.894Z,1.98
2023-09-30T03:25:43.537Z,2.25
2023-09-30T03:27:52.253Z,2.58
2023-09-30T03:30:00.272Z,2.30
2023-09-30T03:32:08.853Z,2.60
2023-09-30T03:34:17.574Z,2.05
2023-09-30T03:36:26.254Z,2.13
2023-09-30T03:38:34.177Z,2.20
2023-09-30T03:40:50.336Z,3.53
2023-09-30T03:42:59.942Z,3.20
2023-09-30T03:45:09.668Z,2.50
2023-09-30T03:47:17.897Z,2.20
2023-09-30T03:49:26.050Z,2.78
2023-09-30T03:51:33.983Z,2.78
2023-09-30T03:53:42.088Z,2.97
2023-09-30T03:55:52.957Z,2.65
2023-09-30T03:58:01.374Z,3.33
2023-09-30T04:00:12.805Z,2.47
2023-09-30T04:02:21.187Z,3.72
2023-09-30T04:04:29.608Z,2.67
2023-09-30T04:06:40.218Z,2.65
2023-09-30T04:08:48.247Z,2.70
2023-09-30T04:11:00.431Z,2.10
2023-09-30T04:13:05.944Z,3.58
2023-09-30T04:15:15.531Z,2.97
2023-09-30T04:17:24.483Z,3.13
2023-09-30T04:19:33.544Z,2.40
2023-09-30T04:21:41.616Z,2.60
2023-09-30T04:23:50.589Z,3.42
2023-09-30T04:26:01.644Z,2.70
2023-09-30T04:28:09.832Z,3.70
2023-09-30T04:30:19.045Z,2.90
2023-09-30T04:32:29.232Z,2.78
2023-09-30T04:34:37.597Z,3.45
2023-09-30T04:36:46.258Z,3.58
2023-09-30T04:38:54.350Z,2.78
2023-09-30T04:41:05.043Z,3.28
2023-09-30T04:43:13.066Z,3.47
2023-09-30T04:45:22.136Z,3.42
2023-09-30T04:47:30.482Z,3.35
2023-09-30T04:49:39.101Z,2.90
2023-09-30T04:51:47.042Z,3.40
2023-09-30T04:53:59.003Z,3.30
2023-09-30T04:56:09.791Z,3.00
2023-09-30T04:58:18.106Z,3.13
2023-09-30T05:00:27.373Z,3.15
2023-09-30T05:02:35.982Z,2.70
2023-09-30T05:04:44.378Z,3.60
2023-09-30T05:06:52.530Z,3.03
2023-09-30T05:09:01.387Z,3.38
2023-09-30T05:11:12.127Z,2.90
2023-09-30T05:13:17.452Z,3.47
2023-09-30T05:15:27.111Z,2.95
2023-09-30T05:17:35.541Z,2.90
2023-09-30T05:19:44.119Z,3.60
2023-09-30T05:21:53.062Z,3.03
2023-09-30T05:24:01.530Z,3.38
2023-09-30T05:26:12.311Z,3.20
2023-09-30T05:28:20.381Z,3.75
2023-09-30T05:30:28.749Z,3.72
2023-09-30T05:32:39.548Z,3.28
2023-09-30T05:34:49.328Z,3.05
2023-09-30T05:36:57.257Z,2.90
2023-09-30T05:39:06.151Z,3.70
2023-09-30T05:41:18.525Z,3.47
2023-09-30T05:43:28.429Z,4.18
2023-09-30T05:45:38.388Z,3.75
2023-09-30T05:47:48.744Z,4.10
2023-09-30T05:49:56.881Z,4.45
2023-09-30T05:52:05.322Z,4.70
2023-09-30T05:54:13.574Z,5.28
2023-09-30T05:56:24.593Z,3.72
2023-09-30T05:58:33.214Z,3.85
2023-09-30T06:00:43.454Z,3.70
2023-09-30T06:02:53.160Z,3.33
2023-09-30T06:05:02.236Z,3.42
2023-09-30T06:07:11.313Z,3.60
2023-09-30T06:11:30.987Z,3.30
2023-09-30T06:13:39.484Z,3.78
2023-09-30T06:15:48.270Z,4.00
2023-09-30T06:17:57.470Z,3.00
2023-09-30T06:20:11.009Z,3.33
2023-09-30T06:22:19.171Z,3.33
2023-09-30T06:24:28.506Z,3.60
2023-09-30T06:26:39.337Z,3.50
2023-09-30T06:28:49.227Z,3.15
2023-09-30T06:30:57.634Z,3.78
2023-09-30T06:33:06.764Z,3.70
2023-09-30T06:35:12.888Z,3.55
2023-09-30T06:37:21.210Z,3.67
2023-09-30T06:39:30.936Z,2.80
2023-09-30T06:41:41.732Z,3.42
2023-09-30T06:43:53.699Z,3.65
2023-09-30T06:46:03.143Z,3.30
2023-09-30T06:48:14.260Z,3.45
2023-09-30T06:50:23.361Z,3.13
2023-09-30T06:52:32.073Z,3.58
2023-09-30T06:54:40.262Z,3.65
2023-09-30T06:56:51.118Z,4.25
2023-09-30T06:58:59.360Z,3.83
2023-09-30T07:01:07.805Z,4.05
2023-09-30T07:03:16.848Z,3.10
2023-09-30T07:05:25.129Z,3.33
2023-09-30T07:07:33.592Z,3.35
2023-09-30T07:09:41.946Z,3.40
2023-09-30T07:11:53.662Z,3.75
2023-09-30T07:14:02.262Z,3.35
2023-09-30T07:16:11.713Z,2.90
2023-09-30T07:18:20.660Z,3.22
2023-09-30T07:20:29.388Z,3.22
2023-09-30T07:22:50.250Z,3.58
2023-09-30T07:25:06.983Z,3.67
2023-09-30T07:27:27.671Z,3.88
2023-09-30T07:29:36.381Z,2.95
2023-09-30T07:31:44.515Z,2.70
2023-09-30T07:33:53.836Z,3.20
2023-09-30T07:36:02.148Z,3.00
2023-09-30T07:38:10.661Z,2.58
2023-09-30T07:40:19.064Z,3.50
2023-09-30T07:42:29.888Z,3.58
2023-09-30T07:44:38.637Z,3.55
2023-09-30T07:46:48.415Z,2.97
2023-09-30T07:48:56.868Z,2.65
2023-09-30T07:51:05.735Z,3.30
2023-09-30T07:53:13.721Z,3.53
2023-09-30T07:55:21.953Z,3.00
2023-09-30T07:57:32.651Z,3.33
2023-09-30T07:59:40.773Z,3.75
2023-09-30T08:01:48.728Z,3.30
2023-09-30T08:03:57.396Z,2.53
2023-09-30T08:06:07.072Z,4.40
2023-09-30T08:08:15.814Z,2.90
2023-09-30T08:10:24.103Z,3.75
2023-09-30T08:12:34.975Z,3.95
2023-09-30T08:14:45.919Z,3.47
2023-09-30T08:16:54.279Z,3.30
2023-09-30T08:19:00.048Z,3.13
2023-09-30T08:21:09.833Z,2.88
2023-09-30T08:23:18.044Z,3.13
2023-09-30T08:25:26.139Z,3.00
2023-09-30T08:27:34.363Z,3.30
2023-09-30T08:29:42.576Z,3.33
2023-09-30T08:31:51.711Z,3.13
2023-09-30T08:33:59.954Z,3.38
2023-09-30T08:36:09.817Z,3.22
2023-09-30T08:38:19.334Z,3.80
2023-09-30T08:40:27.460Z,3.58
2023-09-30T08:42:38.152Z,3.70
2023-09-30T08:44:46.556Z,2.72
2023-09-30T08:46:55.895Z,3.85
2023-09-30T08:49:07.300Z,3.30
2023-09-30T08:51:15.353Z,4.20
2023-09-30T08:53:24.196Z,3.47
2023-09-30T08:55:33.135Z,3.83
2023-09-30T08:57:45.145Z,3.65
2023-09-30T08:59:54.136Z,3.60
2023-09-30T09:02:02.838Z,3.47
2023-09-30T09:04:11.848Z,3.50
2023-09-30T09:06:20.474Z,3.80
2023-09-30T09:08:30.776Z,3.17
2023-09-30T09:10:39.346Z,3.70
2023-09-30T09:13:00.001Z,3.08
2023-09-30T09:15:08.070Z,3.30
2023-09-30T09:17:17.325Z,3.35
2023-09-30T09:19:25.922Z,3.22
2023-09-30T09:21:34.147Z,3.47
2023-09-30T09:23:45.900Z,3.23
2023-09-30T09:25:53.984Z,3.10
2023-09-30T09:28:04.570Z,2.67
2023-09-30T09:30:23.633Z,3.27
2023-09-30T09:32:31.735Z,2.67
2023-09-30T09:34:37.551Z,3.40
2023-09-30T09:36:47.749Z,2.90
2023-09-30T09:38:56.925Z,2.90
2023-09-30T09:41:05.638Z,3.00
2023-09-30T09:43:17.739Z,3.30
2023-09-30T09:45:24.505Z,3.03
2023-09-30T09:47:34.018Z,2.53
2023-09-30T09:49:42.376Z,3.00
2023-09-30T09:51:51.525Z,2.90
2023-09-30T09:54:00.206Z,2.60
2023-09-30T09:56:13.108Z,3.23
2023-09-30T09:58:25.138Z,2.53
2023-09-30T10:00:35.411Z,2.20
2023-09-30T10:02:44.521Z,2.70
2023-09-30T10:04:52.696Z,3.00
2023-09-30T10:07:01.585Z,2.87
2023-09-30T10:09:13.131Z,3.03
2023-09-30T10:11:22.148Z,2.50
2023-09-30T10:13:57.173Z,2.63
2023-09-30T10:16:05.169Z,2.70
2023-09-30T10:18:16.673Z,3.13
2023-09-30T10:20:32.116Z,2.87
2023-09-30T10:22:42.425Z,2.77
2023-09-30T10:24:48.887Z,2.80
2023-09-30T10:27:27.171Z,2.10
2023-09-30T10:29:46.389Z,3.03
2023-09-30T10:31:54.738Z,3.10
2023-09-30T10:34:25.490Z,2.60
2023-09-30T10:36:31.990Z,2.50
2023-09-30T10:38:44.659Z,2.47
2023-09-30T10:40:52.035Z,2.50
2023-09-30T10:43:00.125Z,2.80
2023-09-30T10:45:09.863Z,2.70
2023-09-30T10:47:39.572Z,2.53
2023-09-30T10:49:48.186Z,2.83
2023-09-30T10:51:57.727Z,3.20
2023-09-30T10:54:06.647Z,2.80
2023-09-30T10:56:15.203Z,3.87
2023-09-30T10:58:23.921Z,2.90
2023-09-30T11:00:34.678Z,2.50
2023-09-30T11:02:54.741Z,2.40
2023-09-30T11:05:13.206Z,2.90
2023-09-30T11:07:27.918Z,3.57
2023-09-30T11:09:38.415Z,3.17
2023-09-30T11:11:50.179Z,3.47
2023-09-30T11:13:58.274Z,3.47
2023-09-30T11:16:09.938Z,3.27
2023-09-30T11:18:19.878Z,3.40
2023-09-30T11:20:28.419Z,3.20
2023-09-30T11:22:36.489Z,2.70
2023-09-30T11:24:44.705Z,3.43
2023-09-30T11:26:57.771Z,3.13
2023-09-30T11:29:13.038Z,2.73
2023-09-30T11:31:24.106Z,3.00
2023-09-30T11:33:33.254Z,2.90
2023-09-30T11:35:41.422Z,3.30
2023-09-30T11:37:49.610Z,3.20
2023-09-30T11:39:58.057Z,2.97
2023-09-30T11:42:06.431Z,3.42
2023-09-30T11:44:18.978Z,2.85
2023-09-30T11:46:28.794Z,2.70
2023-09-30T11:48:36.925Z,3.00
2023-09-30T11:50:54.352Z,3.83
2023-09-30T11:53:03.301Z,3.53
2023-09-30T11:55:14.949Z,3.42
2023-09-30T11:57:23.320Z,2.20
2023-09-30T11:59:31.360Z,3.50
2023-09-30T12:01:42.609Z,3.40
2023-09-30T12:03:50.920Z,3.37
2023-09-30T12:06:01.812Z,3.30
2023-09-30T12:08:10.382Z,3.40
2023-09-30T12:10:18.454Z,2.90
2023-09-30T12:12:27.037Z,2.93
2023-09-30T12:14:36.053Z,2.53
2023-09-30T12:16:49.289Z,3.50
2023-09-30T12:18:58.078Z,3.63
2023-09-30T12:21:07.941Z,3.60
2023-09-30T12:23:15.940Z,3.30
2023-09-30T12:25:25.816Z,2.70
2023-09-30T12:27:34.076Z,3.33
2023-09-30T12:29:43.427Z,3.63
2023-09-30T12:31:56.370Z,3.60
2023-09-30T12:34:08.982Z,3.50
2023-09-30T12:36:15.001Z,3.70
2023-09-30T12:38:23.110Z,3.10
2023-09-30T12:40:31.210Z,3.80
2023-09-30T12:42:39.702Z,2.87
2023-09-30T12:44:47.999Z,3.20
2023-09-30T12:46:58.930Z,3.43
2023-09-30T12:49:07.431Z,3.63
2023-09-30T12:51:15.556Z,2.50
2023-09-30T12:53:23.821Z,3.30
2023-09-30T12:55:32.238Z,2.83
2023-09-30T12:57:40.719Z,3.13
2023-09-30T12:59:50.529Z,3.23
2023-09-30T13:02:01.630Z,3.13
2023-09-30T13:04:10.708Z,3.47
2023-09-30T13:06:19.306Z,3.20
2023-09-30T13:08:27.304Z,3.67
2023-09-30T13:10:35.264Z,3.33
2023-09-30T13:12:44.116Z,3.00
2023-09-30T13:14:49.557Z,2.97
2023-09-30T13:17:02.904Z,3.37
2023-09-30T13:19:11.181Z,2.90
2023-09-30T13:21:19.409Z,2.70
2023-09-30T13:23:28.949Z,2.83
2023-09-30T13:25:36.889Z,2.93
2023-09-30T13:27:44.688Z,3.70
2023-09-30T13:29:52.760Z,2.80
2023-09-30T13:32:05.716Z,3.00
2023-09-30T13:34:15.644Z,3.40
2023-09-30T13:36:23.544Z,2.73
2023-09-30T13:38:31.473Z,2.90
2023-09-30T13:40:41.325Z,3.30
2023-09-30T13:42:49.735Z,3.17
2023-09-30T13:44:58.780Z,3.00
2023-09-30T13:47:11.314Z,3.17
2023-09-30T13:49:19.551Z,2.90
2023-09-30T13:51:27.577Z,3.00
2023-09-30T13:53:36.146Z,3.47
2023-09-30T13:55:44.882Z,3.10
2023-09-30T13:57:53.050Z,2.90
2023-09-30T14:00:01.463Z,2.53
2023-09-30T14:02:12.329Z,3.17
2023-09-30T14:04:20.407Z,2.50
2023-09-30T14:06:30.614Z,3.20
2023-09-30T14:08:39.413Z,3.50
2023-09-30T14:10:49.830Z,3.40
2023-09-30T14:12:59.059Z,3.17
2023-09-30T14:15:08.317Z,3.37
2023-09-30T14:17:19.412Z,3.93
2023-09-30T14:19:27.587Z,3.10
2023-09-30T14:21:36.311Z,3.20
2023-09-30T14:23:44.549Z,3.33
2023-09-30T14:25:53.401Z,3.45
2023-09-30T14:28:01.930Z,3.70
2023-09-30T14:30:11.514Z,2.53
2023-09-30T14:32:22.242Z,3.20
2023-09-30T14:34:30.301Z,3.45
2023-09-30T14:36:38.293Z,3.00
2023-09-30T14:38:47.560Z,2.80
2023-09-30T14:41:00.913Z,2.85
2023-09-30T14:43:09.531Z,3.50
2023-09-30T14:45:17.863Z,2.90
2023-09-30T14:47:28.509Z,3.08
2023-09-30T14:49:36.758Z,3.15
2023-09-30T14:51:42.252Z,3.38
2023-09-30T14:53:50.727Z,2.88
2023-09-30T14:55:58.653Z,3.50
2023-09-30T14:58:07.048Z,3.55
2023-09-30T15:00:18.765Z,2.80
2023-09-30T15:02:30.017Z,3.08
2023-09-30T15:04:38.596Z,3.42
2023-09-30T15:06:47.417Z,3.08
2023-09-30T15:08:55.627Z,3.05
2023-09-30T15:11:04.488Z,3.60
2023-09-30T15:13:12.774Z,3.08
2023-09-30T15:15:21.022Z,3.35
2023-09-30T15:17:32.393Z,2.97
2023-09-30T15:19:40.661Z,4.00
2023-09-30T15:21:48.822Z,3.20
2023-09-30T15:23:57.224Z,3.20
2023-09-30T15:26:05.756Z,3.83
2023-09-30T15:28:13.972Z,2.95
2023-09-30T15:30:22.252Z,4.13
2023-09-30T15:32:33.077Z,3.60
2023-09-30T15:34:42.308Z,2.60
2023-09-30T15:36:50.420Z,3.15
2023-09-30T15:38:58.399Z,3.17
2023-09-30T15:41:04.998Z,2.92
2023-09-30T15:43:13.835Z,3.38
2023-09-30T15:45:26.157Z,3.13
2023-09-30T15:47:37.011Z,3.33
2023-09-30T15:49:44.988Z,3.50
2023-09-30T15:51:54.645Z,3.38
2023-09-30T15:54:02.723Z,3.97
2023-09-30T15:56:08.303Z,3.20
2023-09-30T15:58:16.445Z,3.63
2023-09-30T16:00:25.034Z,2.70
2023-09-30T16:02:33.209Z,3.42
2023-09-30T16:04:44.074Z,3.60
2023-09-30T16:06:52.746Z,2.95
2023-09-30T16:09:00.859Z,4.05
2023-09-30T16:11:08.790Z,3.80
2023-09-30T16:13:19.604Z,3.30
2023-09-30T16:15:28.199Z,2.65
2023-09-30T16:17:36.442Z,3.55
2023-09-30T16:19:47.702Z,3.80
2023-09-30T16:21:56.271Z,3.10
2023-09-30T16:24:04.593Z,2.80
2023-09-30T16:26:12.695Z,3.47
2023-09-30T16:28:21.003Z,3.08
2023-09-30T16:30:30.553Z,2.78
2023-09-30T16:32:41.025Z,3.55
2023-09-30T16:34:52.287Z,3.10
2023-09-30T16:37:01.482Z,3.30
2023-09-30T16:39:10.000Z,3.70
2023-09-30T16:41:20.454Z,3.72
2023-09-30T16:43:28.502Z,3.53
2023-09-30T16:45:36.476Z,4.47
2023-09-30T16:47:44.687Z,2.70
2023-09-30T16:49:55.719Z,3.60
2023-09-30T16:52:03.878Z,3.60
2023-09-30T16:54:12.362Z,3.40
2023-09-30T16:56:20.275Z,3.78
2023-09-30T16:58:28.740Z,4.18
2023-09-30T17:00:36.761Z,3.47
2023-09-30T17:02:42.681Z,3.78
2023-09-30T17:04:50.737Z,4.00
2023-09-30T17:07:01.399Z,3.10
2023-09-30T17:09:09.666Z,3.85
2023-09-30T17:11:22.314Z,3.20
2023-09-30T17:13:30.292Z,4.10
2023-09-30T17:15:38.249Z,3.70
2023-09-30T17:17:46.309Z,3.10
2023-09-30T17:19:54.856Z,3.17
2023-09-30T17:22:06.360Z,3.33
2023-09-30T17:24:15.236Z,3.10
2023-09-30T17:26:20.561Z,3.85
2023-09-30T17:28:29.481Z,3.60
2023-09-30T17:30:42.459Z,4.13
2023-09-30T17:32:54.181Z,3.58
2023-09-30T17:35:02.165Z,3.75
2023-09-30T17:37:12.829Z,3.53
2023-09-30T17:39:21.072Z,4.00
2023-09-30T17:41:29.231Z,4.40
2023-09-30T17:43:40.143Z,4.25
2023-09-30T17:45:48.186Z,4.82
2023-09-30T17:47:56.306Z,4.15
2023-09-30T17:50:06.493Z,3.53
2023-09-30T17:52:17.213Z,3.67
2023-09-30T17:54:25.362Z,3.50
2023-09-30T17:56:33.359Z,5.00
2023-09-30T17:58:41.257Z,4.25
2023-09-30T18:00:52.495Z,4.38
2023-09-30T18:03:00.991Z,4.97
2023-09-30T18:05:09.645Z,4.30
2023-09-30T18:07:20.409Z,4.40
2023-09-30T18:09:28.593Z,4.20
2023-09-30T18:11:36.587Z,4.35
2023-09-30T18:13:45.215Z,4.07
2023-09-30T18:15:53.280Z,5.00
2023-09-30T18:18:12.063Z,3.88
2023-09-30T18:20:21.459Z,4.35
2023-09-30T18:22:32.299Z,3.50
2023-09-30T18:24:40.316Z,3.90
2023-09-30T18:26:50.247Z,4.50
2023-09-30T18:28:58.322Z,3.42
2023-09-30T18:31:06.758Z,4.28
2023-09-30T18:33:16.247Z,4.00
2023-09-30T18:35:24.359Z,3.95
2023-09-30T18:37:35.291Z,3.42
2023-09-30T18:39:43.923Z,3.58
2023-09-30T18:41:52.618Z,4.35
2023-09-30T18:44:00.892Z,3.55
2023-09-30T18:46:13.397Z,4.75
2023-09-30T18:48:21.465Z,4.10
2023-09-30T18:50:29.635Z,4.18
2023-09-30T18:52:40.399Z,4.20
2023-09-30T18:54:48.495Z,4.25
2023-09-30T18:56:56.436Z,3.97
2023-09-30T18:59:05.013Z,3.97
2023-09-30T19:01:13.725Z,3.88
2023-09-30T19:03:21.865Z,4.40
2023-09-30T19:05:31.580Z,4.50
2023-09-30T19:07:42.727Z,3.50
2023-09-30T19:09:51.156Z,3.33
2023-09-30T19:11:59.776Z,4.65
2023-09-30T19:14:09.037Z,4.90
2023-09-30T19:16:17.793Z,5.63
2023-09-30T19:18:25.758Z,4.75
2023-09-30T19:20:33.833Z,5.55
2023-09-30T19:22:45.269Z,6.25
2023-09-30T19:24:53.371Z,5.13
2023-09-30T19:27:01.258Z,5.18
2023-09-30T19:29:09.811Z,4.97
2023-09-30T19:31:18.956Z,4.68
2023-09-30T19:33:28.764Z,4.70
2023-09-30T19:35:36.701Z,4.40
2023-09-30T19:37:47.395Z,3.95
2023-09-30T19:39:55.367Z,4.78
2023-09-30T19:42:03.552Z,5.03
2023-09-30T19:44:12.550Z,4.07
2023-09-30T19:46:20.698Z,4.53
2023-09-30T19:48:29.206Z,6.50
2023-09-30T19:50:37.774Z,4.28
2023-09-30T19:52:48.318Z,5.93
2023-09-30T19:54:56.424Z,5.55
2023-09-30T19:57:05.634Z,4.93
2023-09-30T19:59:14.044Z,5.10
2023-09-30T20:01:23.541Z,4.50
2023-09-30T20:03:31.732Z,4.63
2023-09-30T20:05:40.620Z,4.80
2023-09-30T20:07:51.893Z,5.82
2023-09-30T20:10:01.182Z,6.10
2023-09-30T20:12:13.305Z,6.72
2023-09-30T20:14:21.798Z,5.43
2023-09-30T20:16:31.102Z,5.55
2023-09-30T20:18:39.455Z,7.07
2023-09-30T20:20:49.846Z,7.03
2023-09-30T20:23:00.422Z,6.00
2023-09-30T20:25:10.490Z,7.50
2023-09-30T20:27:18.727Z,6.63
2023-09-30T20:29:26.660Z,6.10
2023-09-30T20:31:36.289Z,6.85
2023-09-30T20:33:45.000Z,5.88
2023-09-30T20:35:53.460Z,7.65
2023-09-30T20:38:04.898Z,8.02
2023-09-30T20:40:15.100Z,8.43
2023-09-30T20:42:23.226Z,7.20
2023-09-30T20:44:32.045Z,7.03
2023-09-30T20:46:40.711Z,7.28
2023-09-30T20:48:47.069Z,6.82
2023-09-30T20:50:55.079Z,6.45
2023-09-30T20:55:41.076Z,6.65
2023-09-30T20:57:50.491Z,5.32
2023-09-30T20:59:58.547Z,6.63
2023-09-30T21:02:09.341Z,5.50
2023-09-30T21:04:17.922Z,5.57
2023-09-30T21:06:26.551Z,5.82
2023-09-30T21:08:37.971Z,5.80
2023-09-30T21:10:46.654Z,6.53
2023-09-30T21:12:54.828Z,6.22
2023-09-30T21:15:03.939Z,7.10
2023-09-30T21:17:12.481Z,6.75
2023-09-30T21:19:21.037Z,7.38
2023-09-30T21:21:29.420Z,6.50
2023-09-30T21:23:37.712Z,6.82
2023-09-30T21:25:46.215Z,6.40
2023-09-30T21:27:55.698Z,6.78
2023-09-30T21:30:05.638Z,6.25
2023-09-30T21:32:14.881Z,6.20
2023-09-30T21:34:23.193Z,5.85
2023-09-30T21:36:31.530Z,6.90
2023-09-30T21:38:43.583Z,6.90
2023-09-30T21:40:49.313Z,6.68
2023-09-30T21:42:57.653Z,7.03
2023-09-30T21:45:08.937Z,7.13
2023-09-30T21:47:17.116Z,7.78
2023-09-30T21:49:25.689Z,6.93
2023-09-30T21:51:34.105Z,8.38
2023-09-30T21:53:45.106Z,8.52
2023-09-30T21:55:53.656Z,6.95
2023-09-30T21:58:01.954Z,8.02
2023-09-30T22:00:18.230Z,8.35
2023-09-30T22:02:28.323Z,7.68
2023-09-30T22:04:37.041Z,7.55
2023-09-30T22:06:45.702Z,6.50
2023-09-30T22:08:57.578Z,6.97
2023-09-30T22:11:06.522Z,8.20
2023-09-30T22:13:14.957Z,6.32
2023-09-30T22:15:24.849Z,6.25
2023-09-30T22:17:33.371Z,6.90
2023-09-30T22:19:41.528Z,6.68
2023-09-30T22:21:49.936Z,7.07
2023-09-30T22:24:01.116Z,6.30
2023-09-30T22:26:09.869Z,7.00
2023-09-30T22:28:18.243Z,6.65
2023-09-30T22:30:26.796Z,7.38
2023-09-30T22:32:33.390Z,8.23
2023-09-30T22:34:41.544Z,7.60
2023-09-30T22:36:48.385Z,6.93
2023-09-30T22:38:56.805Z,8.73
2023-09-30T22:41:09.006Z,8.25
2023-09-30T22:43:17.631Z,7.38
2023-09-30T22:45:26.590Z,7.47
2023-09-30T22:47:46.304Z,7.80
2023-09-30T22:49:54.990Z,8.45
2023-09-30T22:52:03.300Z,7.03
2023-09-30T22:54:11.953Z,6.28
2023-09-30T22:56:24.644Z,6.63
2023-09-30T22:58:33.182Z,6.65
2023-09-30T23:00:44.198Z,7.68
2023-09-30T23:02:53.761Z,6.72
2023-09-30T23:05:02.459Z,6.80
2023-09-30T23:07:11.095Z,6.93
2023-09-30T23:09:23.107Z,6.15
2023-09-30T23:11:34.454Z,6.90
2023-09-30T23:13:42.870Z,7.05
2023-09-30T23:15:51.600Z,6.05
2023-09-30T23:18:00.251Z,6.75
2023-09-30T23:20:09.120Z,6.85
2023-09-30T23:22:19.487Z,8.27
2023-09-30T23:24:28.300Z,6.15
2023-09-30T23:26:39.231Z,7.55
2023-09-30T23:28:48.456Z,5.90
2023-09-30T23:30:57.046Z,7.22
2023-09-30T23:33:08.352Z,5.18
2023-09-30T23:35:16.696Z,6.05
2023-09-30T23:37:26.813Z,6.13
2023-09-30T23:39:37.305Z,6.20
2023-09-30T23:41:50.144Z,7.32
2023-09-30T23:44:01.351Z,7.00
2023-09-30T23:46:13.335Z,8.15
2023-09-30T23:48:22.877Z,8.27
2023-09-30T23:50:31.395Z,10.45
2023-09-30T23:52:37.139Z,9.48
2023-09-30T23:54:47.036Z,8.45
2023-09-30T23:56:58.165Z,8.15
2023-09-30T23:59:11.012Z,6.82
